Time;durP1;ratioP1;P1;durP2;ratioP2;P2;SDS_P1;SDS_P2;PMS_P1;PMS_P2;Temp;Humidity;BMP_temperature;BMP_pressure;BME280_temperature;BME280_humidity;BME280_pressure;Samples;Min_cycle;Max_cycle;Signal;HPM_P1;HPM_P2
2023/01/22 00:00:58;;;;;;;;;;;4.90;99.90;;;;;;10420532;28;20026;-73
2023/01/22 00:06:18;;;;;;;8.68;4.75;;;4.90;99.90;;;;;;10405392;28;19912;-73
2023/01/22 00:11:37;;;;;;;8.38;5.03;;;4.90;99.90;;;;;;10420141;28;20029;-73
2023/01/22 00:16:57;;;;;;;8.13;4.57;;;4.90;99.90;;;;;;10410605;28;20487;-73
2023/01/22 00:22:16;;;;;;;7.18;4.30;;;4.90;99.90;;;;;;10404915;28;20025;-74
2023/01/22 00:27:35;;;;;;;;;;;4.90;99.90;;;;;;10415299;28;20093;-74
2023/01/22 00:32:55;;;;;;;8.00;4.38;;;4.90;99.90;;;;;;10434302;28;19905;-74
2023/01/22 00:38:14;;;;;;;5.32;3.97;;;4.90;99.90;;;;;;10422580;28;20026;-74
2023/01/22 00:43:37;;;;;;;9.40;4.63;;;4.90;99.90;;;;;;10419599;28;20025;-74
2023/01/22 00:48:56;;;;;;;6.72;3.97;;;4.90;99.90;;;;;;10434815;28;20108;-74
2023/01/22 00:54:15;;;;;;;8.27;4.45;;;5.00;99.90;;;;;;10433054;28;20109;-73
2023/01/22 00:59:34;;;;;;;6.93;4.00;;;4.90;99.90;;;;;;10410362;28;20029;-74
2023/01/22 01:04:55;;;;;;;6.88;4.20;;;4.90;99.90;;;;;;10416394;28;20435;-74
2023/01/22 01:10:15;;;;;;;6.43;3.67;;;4.80;99.90;;;;;;10424164;28;20061;-74
2023/01/22 01:15:34;;;;;;;5.32;3.47;;;4.90;99.90;;;;;;10423108;28;20279;-74
2023/01/22 01:20:54;;;;;;;;;;;4.80;99.90;;;;;;10415003;28;20013;-74
2023/01/22 01:26:15;;;;;;;7.15;3.50;;;4.80;99.90;;;;;;10419208;28;19909;-74
2023/01/22 01:31:35;;;;;;;5.18;3.38;;;4.80;99.90;;;;;;10420735;28;20025;-74
2023/01/22 01:36:55;;;;;;;6.00;3.20;;;4.80;99.90;;;;;;10422787;28;20029;-74
2023/01/22 01:42:19;;;;;;;;;;;4.80;99.90;;;;;;10436931;28;20029;-74
2023/01/22 01:47:39;;;;;;;6.85;3.70;;;4.80;99.90;;;;;;10422701;28;20366;-74
2023/01/22 01:52:59;;;;;;;;;;;4.80;99.90;;;;;;10418107;28;20475;-74
2023/01/22 01:58:21;;;;;;;4.72;3.00;;;4.80;99.90;;;;;;10418880;28;19905;-74
2023/01/22 02:03:41;;;;;;;5.60;2.95;;;4.80;99.90;;;;;;10418323;28;20025;-74
2023/01/22 02:09:01;;;;;;;5.63;3.17;;;4.80;99.90;;;;;;10426561;28;20409;-74
2023/01/22 02:14:26;;;;;;;4.93;3.00;;;4.80;99.90;;;;;;10425322;28;20020;-74
2023/01/22 02:19:46;;;;;;;5.65;3.22;;;4.80;99.90;;;;;;10424865;28;20498;-74
2023/01/22 02:25:07;;;;;;;6.30;3.50;;;4.80;99.90;;;;;;10434308;28;20009;-74
2023/01/22 02:30:27;;;;;;;4.32;2.78;;;4.80;99.90;;;;;;10423546;28;20041;-74
2023/01/22 02:35:46;;;;;;;6.40;3.17;;;4.70;99.90;;;;;;10417004;28;20040;-74
2023/01/22 02:41:05;;;;;;;5.50;3.20;;;4.80;99.90;;;;;;10414479;28;20044;-74
2023/01/22 02:46:24;;;;;;;7.00;3.42;;;4.70;99.90;;;;;;10409178;28;20072;-74
2023/01/22 02:51:43;;;;;;;5.22;3.30;;;4.70;99.90;;;;;;10426591;28;20026;-74
2023/01/22 02:57:03;;;;;;;6.07;3.22;;;4.70;99.90;;;;;;10427276;28;20108;-74
2023/01/22 03:02:23;;;;;;;6.07;2.80;;;4.70;99.90;;;;;;10431120;28;20025;-74
2023/01/22 03:07:43;;;;;;;7.55;2.97;;;4.70;99.90;;;;;;10421339;28;20024;-73
2023/01/22 03:24:19;;;;;;;5.30;2.97;;;4.70;99.90;;;;;;10415486;28;20036;-74
2023/01/22 03:29:38;;;;;;;;;;;4.70;99.90;;;;;;10418369;28;20253;-74
2023/01/22 03:34:57;;;;;;;5.50;2.78;;;5.10;99.90;;;;;;10420612;28;19905;-74
2023/01/22 03:40:16;;;;;;;4.53;2.78;;;4.70;99.90;;;;;;10416965;28;20029;-74
2023/01/22 03:45:35;;;;;;;;;;;4.70;99.90;;;;;;10426392;28;20566;-74
2023/01/22 03:50:55;;;;;;;4.85;2.75;;;4.70;99.90;;;;;;10427977;28;19904;-74
2023/01/22 03:56:17;;;;;;;5.05;2.60;;;4.70;99.90;;;;;;10430891;28;20040;-74
2023/01/22 04:01:37;;;;;;;4.25;2.45;;;4.70;99.90;;;;;;10419765;28;20029;-74
2023/01/22 04:06:56;;;;;;;5.47;2.47;;;4.70;99.90;;;;;;10428184;28;20211;-73
2023/01/22 04:12:15;;;;;;;;;;;4.70;99.90;;;;;;10422195;28;20108;-74
2023/01/22 04:17:34;;;;;;;4.05;2.40;;;5.50;99.90;;;;;;10422877;28;19904;-74
2023/01/22 04:22:54;;;;;;;;;;;4.70;99.90;;;;;;10421882;28;20021;-74
2023/01/22 04:28:14;;;;;;;4.90;2.22;;;4.70;99.90;;;;;;10429481;28;20226;-74
2023/01/22 04:33:33;;;;;;;4.20;2.55;;;4.70;99.90;;;;;;10401301;28;20286;-74
2023/01/22 04:38:52;;;;;;;6.15;3.03;;;4.70;99.90;;;;;;10433415;28;20037;-74
2023/01/22 04:44:11;;;;;;;3.72;2.28;;;4.70;99.90;;;;;;10419310;28;20029;-74
2023/01/22 04:49:30;;;;;;;4.00;2.20;;;4.70;99.90;;;;;;10425575;28;20025;-74
2023/01/22 04:54:50;;;;;;;4.20;2.60;;;4.80;99.90;;;;;;10424727;28;20037;-73
2023/01/22 05:00:10;;;;;;;4.95;2.45;;;4.80;99.90;;;;;;10404860;28;20071;-75
2023/01/22 05:05:30;;;;;;;3.90;2.13;;;4.80;99.90;;;;;;10423635;28;20673;-74
2023/01/22 05:10:50;;;;;;;6.25;2.30;;;4.80;99.90;;;;;;10422446;28;20128;-74
2023/01/22 05:16:09;;;;;;;;;;;4.80;99.90;;;;;;10423131;28;20534;-74
2023/01/22 05:21:28;;;;;;;4.30;2.05;;;5.60;99.90;;;;;;10434431;28;20089;-74
2023/01/22 05:26:47;;;;;;;;;;;4.80;99.90;;;;;;10411440;28;20137;-75
2023/01/22 05:32:07;;;;;;;4.82;2.22;;;5.40;99.90;;;;;;10428827;28;19904;-75
2023/01/22 05:37:26;;;;;;;3.38;2.05;;;4.80;99.90;;;;;;10421898;28;20200;-75
2023/01/22 05:42:45;;;;;;;3.03;1.98;;;4.80;99.90;;;;;;10412228;28;20033;-74
2023/01/22 05:48:04;;;;;;;3.40;1.95;;;4.80;99.90;;;;;;10426395;28;20021;-74
2023/01/22 05:53:23;;;;;;;;;;;5.30;99.90;;;;;;10428111;28;20076;-74
2023/01/22 05:58:43;;;;;;;;;;;4.80;99.90;;;;;;10423875;28;19908;-74
2023/01/22 06:04:02;;;;;;;6.50;1.88;;;4.80;99.90;;;;;;10426050;28;19909;-74
2023/01/22 06:09:21;;;;;;;;;;;5.30;99.90;;;;;;10424170;28;20112;-74
2023/01/22 06:14:41;;;;;;;4.25;2.00;;;4.80;99.90;;;;;;10417517;28;19905;-74
2023/01/22 06:20:00;;;;;;;4.13;1.90;;;4.80;99.90;;;;;;10415206;28;20041;-74
2023/01/22 06:25:20;;;;;;;3.30;1.83;;;4.80;99.90;;;;;;10424269;28;20024;-74
2023/01/22 06:30:39;;;;;;;2.22;1.58;;;4.80;99.90;;;;;;10416089;28;20492;-74
2023/01/22 06:35:58;;;;;;;;;;;4.90;99.90;;;;;;10428386;28;20025;-74
2023/01/22 06:41:17;;;;;;;2.38;1.90;;;4.90;99.90;;;;;;10432517;28;20367;-74
2023/01/22 06:46:36;;;;;;;;;;;4.90;99.90;;;;;;10412842;28;20045;-74
2023/01/22 06:51:55;;;;;;;2.75;1.63;;;4.90;99.90;;;;;;10433367;28;19979;-74
2023/01/22 06:57:15;;;;;;;3.03;1.67;;;4.90;99.90;;;;;;10419298;28;20022;-74
2023/01/22 07:02:34;;;;;;;4.80;1.60;;;4.80;99.90;;;;;;10412843;28;20025;-74
2023/01/22 07:07:54;;;;;;;3.15;1.60;;;4.90;99.90;;;;;;10420482;28;20450;-74
2023/01/22 07:13:14;;;;;;;3.60;1.85;;;4.90;99.90;;;;;;10415743;28;20025;-74
2023/01/22 07:18:33;;;;;;;2.05;1.35;;;4.90;99.90;;;;;;10419387;28;20151;-74
2023/01/22 07:23:53;;;;;;;2.38;1.50;;;4.90;99.90;;;;;;10412855;28;20485;-74
2023/01/22 07:29:12;;;;;;;3.05;1.70;;;4.90;99.90;;;;;;10413475;28;20025;-74
2023/01/22 07:34:31;;;;;;;2.53;1.60;;;4.90;99.90;;;;;;10413717;28;20112;-74
2023/01/22 07:39:50;;;;;;;2.22;1.50;;;4.90;99.90;;;;;;10428156;28;20037;-74
2023/01/22 07:45:10;;;;;;;2.00;1.05;;;4.90;99.90;;;;;;10422323;28;20504;-74
2023/01/22 07:50:30;;;;;;;;;;;4.90;99.90;;;;;;10429382;28;20108;-74
2023/01/22 07:55:49;;;;;;;2.35;1.40;;;5.20;99.90;;;;;;10419011;28;19916;-74
2023/01/22 08:01:09;;;;;;;;;;;4.90;99.90;;;;;;10421263;28;20646;-74
2023/01/22 08:06:28;;;;;;;2.15;1.35;;;4.90;99.90;;;;;;10418312;28;19905;-74
2023/01/22 08:11:48;;;;;;;1.52;1.15;;;4.90;99.90;;;;;;10411251;28;20037;-74
2023/01/22 08:17:07;;;;;;;2.28;1.35;;;4.90;99.90;;;;;;10426720;28;20479;-74
2023/01/22 08:22:26;;;;;;;1.95;1.20;;;4.90;99.90;;;;;;10425139;28;20057;-74
2023/01/22 08:27:45;;;;;;;2.20;1.42;;;4.90;99.90;;;;;;10418306;28;20049;-74
2023/01/22 08:33:04;;;;;;;1.95;1.35;;;4.90;99.90;;;;;;10415453;28;20064;-74
2023/01/22 08:38:23;;;;;;;2.10;1.20;;;4.90;99.90;;;;;;10427923;28;20064;-74
2023/01/22 08:43:42;;;;;;;2.70;1.55;;;4.90;99.90;;;;;;10419661;28;20101;-74
2023/01/22 08:49:02;;;;;;;1.95;1.20;;;4.90;99.90;;;;;;10421346;28;20045;-74
2023/01/22 08:54:22;;;;;;;2.03;1.17;;;4.90;99.90;;;;;;10428055;28;20021;-74
2023/01/22 08:59:41;;;;;;;2.22;1.40;;;4.90;99.90;;;;;;10426192;28;20460;-74
2023/01/22 09:05:00;;;;;;;2.00;1.30;;;5.00;99.90;;;;;;10427064;28;20037;-73
2023/01/22 09:10:20;;;;;;;2.38;1.30;;;5.00;99.90;;;;;;10417990;28;20029;-73
2023/01/22 09:15:39;;;;;;;;;;;5.00;99.90;;;;;;10418916;28;20451;-74
2023/01/22 09:20:58;;;;;;;1.85;0.95;;;5.00;99.90;;;;;;10424771;28;19936;-73
2023/01/22 09:26:17;;;;;;;;;;;5.00;99.90;;;;;;10804452;22;20048;-63
2023/01/22 09:31:37;;;;;;;2.28;1.23;;;5.00;99.90;;;;;;10474371;28;19908;-65
2023/01/22 09:36:56;;;;;;;3.15;1.40;;;5.00;99.90;;;;;;10473089;28;20036;-63
2023/01/22 09:42:36;;;;;;;2.50;1.30;;;5.30;99.90;;;;;;10464193;28;20041;-65
2023/01/22 10:16:47;;;;;;;1.52;1.17;;;5.20;99.90;;;;;;11253489;22;20141;-64
2023/01/22 10:22:18;;;;;;;2.95;1.30;;;6.70;99.90;;;;;;10413864;22;20049;-65
2023/01/22 10:33:44;;;;;;;2.45;1.48;;;4.70;99.90;;;;;;10432731;28;20057;-65
2023/01/22 10:39:14;;;;;;;1.42;1.08;;;5.60;99.90;;;;;;10433831;28;20401;-63
2023/01/22 10:44:34;;;;;;;2.25;1.25;;;5.20;99.90;;;;;;10434305;28;20256;-64
2023/01/22 10:50:05;;;;;;;3.33;1.30;;;5.20;99.90;;;;;;10431561;28;20108;-64
2023/01/22 10:55:30;;;;;;;2.55;1.30;;;5.20;99.90;;;;;;10422990;28;20112;-65
2023/01/22 11:01:26;;;;;;;2.28;1.40;;;6.60;99.90;;;;;;10428407;28;20032;-64
2023/01/22 11:07:13;;;;;;;2.20;1.48;;;5.20;99.90;;;;;;10427479;28;20096;-71
2023/01/22 11:12:47;;;;;;;1.80;1.17;;;5.70;99.90;;;;;;10427661;28;20037;-64
2023/01/22 11:18:51;;;;;;;;;;;;;;;;;;;;;
2023/01/22 11:24:47;;;;;;;2.10;1.52;;;5.20;99.90;;;;;;10392340;28;20045;-64
2023/01/22 11:30:37;;;;;;;2.35;1.23;;;5.30;99.90;;;;;;10390555;28;20025;-64
2023/01/22 11:36:03;;;;;;;2.05;1.33;;;4.30;99.90;;;;;;10401586;28;20045;-64
2023/01/22 11:41:43;;;;;;;2.55;1.23;;;5.30;99.90;;;;;;10397438;28;20476;-64
2023/01/22 11:47:29;;;;;;;2.22;1.20;;;5.30;99.90;;;;;;10396783;28;20033;-65
2023/01/22 11:53:21;;;;;;;2.47;1.35;;;5.30;99.90;;;;;;10402561;28;20033;-64
2023/01/22 11:58:51;;;;;;;2.25;1.38;;;5.30;99.90;;;;;;10403607;28;20492;-64
2023/01/22 12:04:32;;;;;;;2.33;1.70;;;5.30;99.90;;;;;;10385294;28;20217;-64
2023/01/22 12:10:02;;;;;;;2.35;1.60;;;5.40;99.90;;;;;;10397133;28;20029;-64
2023/01/22 12:15:43;;;;;;;3.30;1.73;;;6.10;99.90;;;;;;10398951;28;20321;-64
2023/01/22 12:21:33;;;;;;;2.72;1.70;;;5.40;99.90;;;;;;10378944;28;20428;-63
2023/01/22 12:27:04;;;;;;;2.03;1.40;;;5.40;99.90;;;;;;10405764;28;20421;-64
2023/01/22 12:32:26;;;;;;;2.58;1.55;;;5.40;99.90;;;;;;10402777;28;20041;-64
2023/01/22 12:38:04;;;;;;;2.95;1.80;;;5.40;99.90;;;;;;10401042;28;20425;-64
2023/01/22 12:43:36;;;;;;;2.65;1.38;;;5.50;99.90;;;;;;10390577;28;20482;-64
2023/01/22 12:48:56;;;;;;;3.45;1.45;;;5.40;99.90;;;;;;10397724;28;20041;-64
2023/01/22 12:54:42;;;;;;;3.00;1.20;;;5.40;99.90;;;;;;10389979;28;20467;-64
2023/01/22 13:00:24;;;;;;;3.08;1.40;;;5.40;99.90;;;;;;10378171;28;20408;-64
2023/01/22 13:05:46;;;;;;;2.50;1.42;;;5.40;99.90;;;;;;10396257;28;20484;-63
2023/01/22 13:11:11;;;;;;;3.20;1.80;;;5.50;99.90;;;;;;10382539;28;20160;-66
2023/01/22 13:16:33;;;;;;;3.75;1.52;;;6.20;99.90;;;;;;10399892;28;20045;-66
2023/01/22 13:21:57;;;;;;;2.05;1.50;;;5.60;99.90;;;;;;10388863;28;20490;-64
2023/01/22 13:27:30;;;;;;;10.95;5.00;;;5.80;99.90;;;;;;10392258;28;20053;-64
2023/01/22 13:33:00;;;;;;;9.05;5.25;;;4.30;99.90;;;;;;10392650;28;20033;-71
2023/01/22 13:38:28;;;;;;;8.77;3.95;;;4.40;99.90;;;;;;10383282;28;20034;-63
2023/01/22 13:56:17;;;;;;;8.70;4.28;;;4.80;99.90;;;;;;10373630;28;20487;-64
2023/01/22 14:01:37;;;;;;;7.53;4.10;;;4.90;99.90;;;;;;10399066;28;20176;-64
2023/01/22 14:07:31;;;;;;;9.23;3.78;;;5.00;99.90;;;;;;10390552;28;20474;-65
2023/01/22 14:13:35;;;;;;;;;;;;;;;;;;;;;
2023/01/22 14:19:01;;;;;;;8.20;3.97;;;5.20;99.90;;;;;;10389026;28;20022;-65
